createdAt,value
2023-03-20T00:23:21.480Z,82.84
2023-03-20T00:26:13.175Z,82.86
2023-03-20T00:46:39.025Z,83.10
2023-03-20T01:03:06.995Z,82.33
2023-03-20T01:46:43.051Z,80.64
2023-03-20T01:50:12.639Z,80.40
2023-03-20T02:07:02.338Z,81.55
2023-03-20T02:11:07.436Z,81.10
2023-03-20T02:14:50.780Z,80.93
2023-03-20T03:25:27.525Z,82.89
2023-03-20T03:58:53.200Z,83.42
2023-03-20T05:36:58.433Z,82.58
2023-03-20T06:41:35.202Z,82.00
2023-03-20T06:44:12.608Z,82.04
2023-03-20T06:47:18.440Z,82.37
2023-03-20T06:50:01.394Z,82.75
2023-03-20T08:29:57.452Z,78.97
2023-03-20T08:32:31.401Z,78.33
2023-03-20T08:35:31.884Z,77.75
2023-03-20T08:39:41.631Z,77.87
2023-03-20T08:45:56.819Z,77.28
2023-03-20T08:48:27.562Z,77.14
2023-03-20T08:51:03.769Z,77.22
2023-03-20T08:53:36.387Z,76.94
2023-03-20T08:56:08.683Z,76.10
2023-03-20T08:58:42.432Z,75.58
2023-03-20T09:01:13.094Z,75.53
2023-03-20T09:03:47.683Z,75.35
2023-03-20T09:06:23.115Z,75.17
2023-03-20T09:16:20.163Z,75.26
2023-03-20T09:26:16.323Z,74.75
2023-03-20T09:31:35.665Z,74.40
2023-03-20T09:34:04.862Z,74.41
2023-03-20T09:36:35.825Z,74.26
2023-03-20T09:39:04.879Z,73.90
2023-03-20T09:41:55.675Z,73.77
2023-03-20T09:44:36.813Z,73.67
2023-03-20T09:47:40.609Z,73.63
2023-03-20T09:50:37.088Z,73.29
2023-03-20T09:53:45.986Z,73.59
2023-03-20T09:56:29.474Z,73.68
2023-03-20T09:59:00.350Z,73.63
2023-03-20T10:01:37.683Z,73.14
2023-03-20T10:04:39.237Z,73.59
2023-03-20T10:07:22.224Z,73.22
2023-03-20T10:10:15.405Z,73.33
2023-03-20T10:16:37.243Z,73.51
2023-03-20T10:29:47.572Z,73.04
2023-03-20T10:32:44.641Z,73.08
2023-03-20T10:35:34.627Z,73.10
2023-03-20T10:38:33.116Z,72.69
2023-03-20T10:41:02.204Z,72.35
2023-03-20T10:43:36.589Z,72.29
2023-03-20T10:46:24.393Z,72.38
2023-03-20T10:49:06.706Z,72.42
2023-03-20T10:51:46.628Z,72.28
2023-03-20T10:54:50.596Z,72.07
2023-03-20T10:58:58.617Z,71.47
2023-03-20T11:01:30.774Z,70.94
2023-03-20T11:04:09.428Z,71.16
2023-03-20T11:27:32.562Z,71.40
2023-03-20T11:41:52.831Z,70.95
2023-03-20T11:49:18.678Z,70.93
2023-03-20T12:11:53.662Z,69.06
2023-03-20T12:14:51.072Z,69.12
2023-03-20T12:17:39.523Z,69.67
2023-03-20T12:27:34.758Z,69.85
2023-03-20T12:35:03.432Z,69.32
2023-03-20T12:38:07.787Z,69.33
2023-03-20T12:45:00.161Z,68.84
2023-03-20T12:51:55.105Z,69.18
2023-03-20T12:55:05.446Z,69.22
2023-03-20T13:04:59.079Z,69.42
2023-03-20T13:07:40.008Z,69.64
2023-03-20T13:10:28.294Z,69.63
2023-03-20T19:53:02.023Z,85.90
2023-03-20T21:24:53.771Z,86.43
2023-03-20T21:31:30.268Z,85.30
2023-03-20T21:34:07.465Z,85.02
2023-03-20T21:36:51.636Z,84.80
2023-03-20T21:39:46.439Z,84.75
2023-03-20T21:42:20.575Z,85.01
2023-03-20T21:46:03.934Z,85.33
2023-03-20T21:56:48.375Z,85.84
2023-03-20T21:59:36.765Z,85.59
2023-03-20T22:02:10.557Z,85.41
2023-03-20T22:43:41.127Z,85.46
2023-03-20T22:45:34.455Z,84.94
2023-03-20T22:48:16.656Z,84.70
2023-03-20T22:50:50.759Z,84.47
2023-03-20T22:53:19.676Z,84.49
2023-03-20T22:55:51.338Z,84.59
2023-03-20T22:58:21.545Z,84.83
2023-03-20T23:00:57.777Z,85.29
2023-03-20T23:03:40.823Z,85.59
2023-03-20T23:06:22.243Z,86.09
2023-03-20T23:08:57.174Z,85.85
2023-03-20T23:11:27.893Z,85.86
2023-03-20T23:14:03.862Z,86.32
2023-03-20T23:16:40.264Z,86.35
2023-03-20T23:19:14.385Z,86.22
2023-03-20T23:21:43.563Z,86.32
2023-03-20T23:24:35.455Z,86.08
2023-03-20T23:27:25.459Z,86.13
2023-03-20T23:29:58.385Z,86.38
2023-03-20T23:32:46.568Z,86.74
2023-03-20T23:35:15.696Z,86.88
2023-03-20T23:37:47.955Z,87.10
2023-03-20T23:40:19.726Z,86.87
2023-03-20T23:43:09.532Z,86.50
2023-03-20T23:45:41.047Z,85.88
2023-03-20T23:48:13.509Z,85.69
2023-03-20T23:50:52.077Z,85.55
2023-03-20T23:53:28.333Z,85.43
2023-03-20T23:55:58.449Z,85.34
2023-03-20T23:58:37.484Z,85.45
